createdAt,value
2022-10-05T00:00:56.953Z,12.90
2022-10-05T00:03:40.390Z,10.30
2022-10-05T00:06:11.188Z,12.70
2022-10-05T00:08:39.209Z,11.10
2022-10-05T00:11:08.399Z,10.20
2022-10-05T00:13:36.060Z,13.10
2022-10-05T00:16:19.786Z,11.40
2022-10-05T00:18:50.532Z,12.60
2022-10-05T00:21:24.130Z,11.40
2022-10-05T00:23:55.595Z,12.90
2022-10-05T00:26:25.827Z,10.10
2022-10-05T00:28:55.194Z,12.20
2022-10-05T00:31:26.182Z,12.30
2022-10-05T00:33:55.867Z,11.30
2022-10-05T00:36:23.684Z,13.80
2022-10-05T00:38:52.272Z,11.50
2022-10-05T00:41:36.204Z,15.00
2022-10-05T00:44:12.723Z,11.20
2022-10-05T00:46:56.440Z,12.60
2022-10-05T00:49:36.476Z,11.90
2022-10-05T00:52:20.059Z,10.80
2022-10-05T00:55:00.039Z,10.60
2022-10-05T00:58:02.712Z,11.20
2022-10-05T01:00:34.156Z,11.90
2022-10-05T01:03:09.162Z,10.40
2022-10-05T01:06:13.068Z,12.00
2022-10-05T01:08:49.790Z,14.50
2022-10-05T01:11:35.461Z,15.00
2022-10-05T01:14:21.932Z,16.00
2022-10-05T01:17:20.342Z,13.10
2022-10-05T01:20:11.556Z,13.80
2022-10-05T01:23:11.158Z,14.90
2022-10-05T01:26:10.777Z,13.80
2022-10-05T01:29:05.264Z,12.80
2022-10-05T01:31:42.842Z,13.70
2022-10-05T01:34:46.976Z,14.40
2022-10-05T01:37:35.557Z,14.00
2022-10-05T01:40:15.082Z,13.40
2022-10-05T01:42:57.718Z,11.30
2022-10-05T01:45:41.480Z,14.30
2022-10-05T01:48:31.723Z,12.70
2022-10-05T01:51:21.251Z,13.60
2022-10-05T01:54:04.883Z,13.90
2022-10-05T01:56:51.661Z,12.70
2022-10-05T01:59:35.675Z,16.00
2022-10-05T02:05:07.485Z,15.20
2022-10-05T02:07:54.903Z,16.20
2022-10-05T02:10:31.141Z,13.30
2022-10-05T02:13:19.625Z,12.10
2022-10-05T02:16:00.594Z,14.90
2022-10-05T02:18:37.502Z,13.80
2022-10-05T02:21:05.666Z,12.90
2022-10-05T02:23:38.021Z,13.00
2022-10-05T02:26:08.685Z,14.10
2022-10-05T02:28:45.637Z,12.60
2022-10-05T02:31:17.659Z,14.60
2022-10-05T02:36:37.660Z,13.10
2022-10-05T02:39:14.687Z,15.20
2022-10-05T02:42:06.531Z,14.40
2022-10-05T02:44:59.395Z,18.60
2022-10-05T02:47:30.176Z,12.50
2022-10-05T02:50:14.233Z,12.30
2022-10-05T02:53:05.107Z,12.50
2022-10-05T02:56:09.035Z,13.50
2022-10-05T02:58:46.216Z,18.40
2022-10-05T03:01:35.564Z,12.50
2022-10-05T03:04:19.874Z,11.50
2022-10-05T03:06:55.874Z,14.20
2022-10-05T03:09:29.071Z,11.60
2022-10-05T03:12:09.716Z,18.40
2022-10-05T03:14:53.571Z,13.80
2022-10-05T03:17:28.610Z,12.00
2022-10-05T03:20:18.655Z,12.00
2022-10-05T03:22:50.982Z,12.40
2022-10-05T03:25:35.273Z,11.90
2022-10-05T03:28:21.345Z,13.80
2022-10-05T03:31:14.223Z,13.50
2022-10-05T03:33:49.901Z,18.40
2022-10-05T03:36:45.931Z,15.40
2022-10-05T03:39:27.310Z,13.50
2022-10-05T03:41:55.321Z,14.90
2022-10-05T03:44:48.151Z,13.90
2022-10-05T03:47:38.883Z,15.50
2022-10-05T03:50:29.381Z,12.90
2022-10-05T03:53:03.046Z,16.00
2022-10-05T03:58:02.875Z,16.00
2022-10-05T04:00:32.010Z,18.80
2022-10-05T04:03:17.359Z,15.70
2022-10-05T04:06:09.100Z,15.30
2022-10-05T04:08:52.117Z,15.60
2022-10-05T04:11:31.761Z,16.60
2022-10-05T04:14:10.082Z,18.30
2022-10-05T04:16:45.188Z,13.50
2022-10-05T04:19:49.261Z,16.30
2022-10-05T04:22:25.487Z,16.50
2022-10-05T04:25:02.864Z,17.60
2022-10-05T04:27:39.142Z,16.40
2022-10-05T04:30:15.514Z,16.10
2022-10-05T04:33:00.486Z,15.10
2022-10-05T04:35:46.107Z,14.70
2022-10-05T04:38:17.205Z,17.50
2022-10-05T04:41:01.566Z,15.20
2022-10-05T04:43:46.371Z,15.40
2022-10-05T04:46:30.315Z,17.20
2022-10-05T04:49:30.383Z,13.60
2022-10-05T04:52:29.936Z,16.50
2022-10-05T04:55:19.917Z,17.10
2022-10-05T04:58:05.083Z,15.90
2022-10-05T05:01:05.091Z,16.30
2022-10-05T05:03:45.719Z,18.10
2022-10-05T05:06:24.810Z,16.40
2022-10-05T05:09:09.383Z,15.60
2022-10-05T05:12:09.266Z,14.10
2022-10-05T05:14:58.662Z,15.00
2022-10-05T05:18:00.225Z,14.80
2022-10-05T05:20:59.176Z,13.00
2022-10-05T05:23:40.075Z,19.60
2022-10-05T05:26:19.242Z,19.10
2022-10-05T05:28:50.514Z,19.90
2022-10-05T05:31:45.654Z,19.80
2022-10-05T05:34:37.261Z,17.90
2022-10-05T05:37:26.391Z,18.50
2022-10-05T05:40:10.041Z,17.00
2022-10-05T05:42:58.790Z,19.10
2022-10-05T05:45:44.175Z,15.80
2022-10-05T05:48:39.887Z,15.40
2022-10-05T05:51:14.154Z,16.20
2022-10-05T05:54:02.379Z,14.60
2022-10-05T05:56:34.763Z,15.90
2022-10-05T05:59:13.329Z,13.60
2022-10-05T06:01:49.006Z,14.10
2022-10-05T06:04:25.343Z,14.10
2022-10-05T06:06:58.100Z,16.70
2022-10-05T06:09:37.956Z,14.40
2022-10-05T06:12:41.753Z,16.00
2022-10-05T06:15:42.111Z,17.40
2022-10-05T06:18:20.403Z,14.20
2022-10-05T06:21:00.885Z,12.20
2022-10-05T06:24:00.597Z,15.90
2022-10-05T06:26:47.700Z,13.20
2022-10-05T06:29:22.728Z,13.20
2022-10-05T06:32:06.130Z,14.10
2022-10-05T06:34:55.572Z,12.00
2022-10-05T06:37:55.881Z,13.40
2022-10-05T06:40:47.799Z,11.60
2022-10-05T06:43:34.692Z,12.70
2022-10-05T06:46:24.579Z,13.00
2022-10-05T06:49:31.002Z,11.80
2022-10-05T06:52:52.608Z,12.70
2022-10-05T06:55:46.723Z,11.80
2022-10-05T07:01:03.327Z,12.20
2022-10-05T07:03:49.844Z,12.10
2022-10-05T07:06:25.763Z,12.20
2022-10-05T07:09:25.348Z,11.10
2022-10-05T07:12:11.788Z,14.10
2022-10-05T07:15:13.291Z,12.70
2022-10-05T07:17:49.185Z,13.20
2022-10-05T07:20:46.849Z,13.50
2022-10-05T07:23:48.929Z,13.30
2022-10-05T07:26:49.341Z,15.40
2022-10-05T07:29:28.915Z,12.80
2022-10-05T07:32:10.892Z,11.10
2022-10-05T07:34:51.421Z,12.80
2022-10-05T07:37:45.521Z,12.00
2022-10-05T07:40:32.770Z,12.30
2022-10-05T07:43:16.400Z,11.00
2022-10-05T07:46:13.524Z,11.00
2022-10-05T07:48:41.342Z,10.50
2022-10-05T07:51:23.187Z,11.60
2022-10-05T07:54:03.807Z,13.70
2022-10-05T07:56:59.322Z,11.40
2022-10-05T07:59:54.166Z,13.00
2022-10-05T08:02:33.409Z,11.90
2022-10-05T08:05:26.675Z,11.50
2022-10-05T08:08:19.630Z,9.70
2022-10-05T08:11:05.194Z,11.00
2022-10-05T08:13:51.512Z,10.80
2022-10-05T08:16:19.836Z,10.10
2022-10-05T08:19:14.255Z,11.80
2022-10-05T08:21:54.144Z,10.90
2022-10-05T08:24:49.773Z,10.60
2022-10-05T08:27:30.051Z,12.40
2022-10-05T08:30:08.985Z,12.00
2022-10-05T08:33:00.480Z,12.20
2022-10-05T08:35:38.501Z,11.30
2022-10-05T08:38:16.840Z,12.70
2022-10-05T08:41:03.012Z,11.50
2022-10-05T08:44:02.634Z,9.60
2022-10-05T08:46:43.305Z,9.40
2022-10-05T08:49:23.541Z,12.20
2022-10-05T08:52:13.243Z,10.70
2022-10-05T08:55:00.012Z,9.30
2022-10-05T08:57:59.812Z,11.90
2022-10-05T09:00:51.685Z,11.30
2022-10-05T09:03:34.842Z,10.20
2022-10-05T09:06:27.070Z,10.50
2022-10-05T09:09:09.219Z,11.30
2022-10-05T09:11:44.968Z,10.20
2022-10-05T09:14:52.431Z,11.50
2022-10-05T09:17:43.064Z,11.00
2022-10-05T09:20:22.775Z,10.50
2022-10-05T09:22:58.052Z,9.50
2022-10-05T09:25:31.497Z,8.60
2022-10-05T09:30:58.359Z,12.30
2022-10-05T09:33:54.295Z,9.20
2022-10-05T09:36:53.855Z,12.20
2022-10-05T09:39:42.947Z,10.40
2022-10-05T09:42:35.828Z,12.40
2022-10-05T09:45:25.759Z,9.30
2022-10-05T09:48:25.917Z,10.10
2022-10-05T09:51:26.643Z,8.90
2022-10-05T09:54:28.879Z,9.70
2022-10-05T09:57:31.509Z,10.00
2022-10-05T10:00:38.546Z,9.90
2022-10-05T10:03:25.493Z,8.50
2022-10-05T10:06:25.413Z,8.40
2022-10-05T10:09:09.197Z,10.40
2022-10-05T10:12:08.813Z,8.90
2022-10-05T10:14:58.232Z,9.50
2022-10-05T10:17:40.221Z,8.80
2022-10-05T10:20:24.511Z,7.40
2022-10-05T10:23:34.159Z,7.60
2022-10-05T10:26:24.836Z,9.10
2022-10-05T10:29:28.454Z,8.30
2022-10-05T10:31:57.296Z,10.20
2022-10-05T10:34:44.057Z,9.40
2022-10-05T10:37:34.308Z,8.50
2022-10-05T10:40:20.247Z,9.90
2022-10-05T10:43:14.683Z,8.00
2022-10-05T10:46:05.451Z,7.60
2022-10-05T10:49:15.677Z,7.40
2022-10-05T10:52:02.345Z,8.10
2022-10-05T10:55:06.369Z,8.50
2022-10-05T10:58:12.350Z,9.10
2022-10-05T11:00:54.734Z,7.50
2022-10-05T11:03:57.364Z,9.20
2022-10-05T11:06:56.989Z,9.20
2022-10-05T11:09:40.987Z,8.30
2022-10-05T11:15:00.697Z,8.10
2022-10-05T11:17:55.210Z,8.40
2022-10-05T11:20:56.103Z,7.70
2022-10-05T11:23:45.850Z,9.70
2022-10-05T11:26:41.474Z,7.30
2022-10-05T11:29:41.461Z,8.60
2022-10-05T11:32:29.504Z,9.90
2022-10-05T11:35:06.392Z,10.10
2022-10-05T11:37:53.654Z,8.60
2022-10-05T11:40:36.382Z,8.30
2022-10-05T11:43:25.885Z,8.30
2022-10-05T11:46:16.708Z,8.40
2022-10-05T11:49:03.215Z,7.60
2022-10-05T11:51:47.401Z,7.90
2022-10-05T11:54:25.746Z,7.70
2022-10-05T11:57:03.957Z,8.60
2022-10-05T11:59:43.145Z,7.70
2022-10-05T12:02:27.232Z,8.10
2022-10-05T12:05:11.205Z,8.80
2022-10-05T12:10:40.277Z,7.10
2022-10-05T12:13:19.328Z,7.60
2022-10-05T12:16:19.367Z,7.90
2022-10-05T12:19:06.854Z,8.80
2022-10-05T12:21:41.579Z,8.50
2022-10-05T12:24:31.493Z,7.00
2022-10-05T12:27:05.780Z,7.20
2022-10-05T12:29:52.765Z,9.40
2022-10-05T12:32:44.714Z,8.10
2022-10-05T12:35:43.926Z,8.50
2022-10-05T12:38:28.720Z,8.10
2022-10-05T12:41:12.970Z,7.50
2022-10-05T12:43:48.259Z,8.20
2022-10-05T12:46:19.063Z,10.00
2022-10-05T12:49:08.691Z,7.30
2022-10-05T12:51:59.944Z,7.70
2022-10-05T12:54:39.060Z,6.40
2022-10-05T12:57:35.535Z,7.70
2022-10-05T13:00:22.457Z,6.80
2022-10-05T13:02:58.066Z,8.80
2022-10-05T13:05:47.168Z,6.80
2022-10-05T13:08:25.437Z,6.80
2022-10-05T13:11:25.032Z,8.00
2022-10-05T13:14:11.504Z,7.10
2022-10-05T13:17:01.122Z,9.10
2022-10-05T13:19:44.564Z,7.30
2022-10-05T13:22:28.279Z,6.30
2022-10-05T13:25:28.553Z,7.50
2022-10-05T13:28:13.035Z,9.10
2022-10-05T13:30:50.597Z,9.00
2022-10-05T13:33:27.167Z,9.30
2022-10-05T13:36:22.590Z,7.40
2022-10-05T13:39:12.504Z,7.50
2022-10-05T13:42:16.376Z,8.30
2022-10-05T13:45:03.247Z,8.30
2022-10-05T13:48:03.094Z,8.10
2022-10-05T13:50:35.415Z,7.10
2022-10-05T13:53:19.166Z,7.70
2022-10-05T13:58:41.591Z,10.50
2022-10-05T14:01:51.448Z,9.00
2022-10-05T14:04:24.635Z,9.30
2022-10-05T14:06:52.653Z,7.30
2022-10-05T14:09:20.266Z,8.20
2022-10-05T14:11:50.880Z,9.50
2022-10-05T14:14:43.019Z,8.10
2022-10-05T14:17:16.744Z,7.70
2022-10-05T14:19:51.048Z,8.20
2022-10-05T14:22:24.794Z,8.50
2022-10-05T14:25:02.849Z,8.50
2022-10-05T14:27:35.129Z,9.70
2022-10-05T14:30:20.788Z,8.80
2022-10-05T14:33:09.044Z,8.80
2022-10-05T14:35:54.608Z,9.10
2022-10-05T14:38:29.813Z,7.70
2022-10-05T14:41:14.768Z,8.30
2022-10-05T14:44:04.539Z,9.00
2022-10-05T14:46:35.542Z,7.60
2022-10-05T14:49:22.159Z,8.80
2022-10-05T14:51:51.561Z,9.40
2022-10-05T14:54:25.146Z,7.60
2022-10-05T14:57:25.354Z,8.70
2022-10-05T15:00:12.367Z,9.30
2022-10-05T15:03:16.146Z,8.10
2022-10-05T15:05:59.369Z,9.20
2022-10-05T15:08:59.983Z,12.40
2022-10-05T15:11:56.360Z,10.60
2022-10-05T15:14:27.199Z,11.30
2022-10-05T15:17:01.734Z,11.30
2022-10-05T15:19:40.954Z,12.00
2022-10-05T15:22:25.301Z,19.60
2022-10-05T15:25:15.081Z,33.90
2022-10-05T15:28:09.574Z,26.20
2022-10-05T15:30:55.913Z,17.50
2022-10-05T15:34:00.117Z,20.60
2022-10-05T15:36:50.194Z,20.40
2022-10-05T15:39:34.621Z,27.10
2022-10-05T15:42:09.623Z,28.40
2022-10-05T15:45:00.104Z,37.90
2022-10-05T15:47:47.186Z,32.80
2022-10-05T15:50:26.385Z,29.20
2022-10-05T15:53:07.295Z,35.10
2022-10-05T15:55:54.727Z,70.50
2022-10-05T15:58:31.083Z,58.20
2022-10-05T16:01:07.962Z,56.40
2022-10-05T16:04:07.764Z,40.20
2022-10-05T16:07:23.368Z,23.40
2022-10-05T16:10:15.977Z,19.30
2022-10-05T16:13:15.846Z,21.10
2022-10-05T16:15:55.138Z,26.00
2022-10-05T16:18:45.646Z,29.80
2022-10-05T16:21:19.446Z,26.60
2022-10-05T16:24:07.035Z,27.60
2022-10-05T16:27:04.151Z,47.20
2022-10-05T16:30:00.396Z,31.80
2022-10-05T16:32:46.677Z,19.00
2022-10-05T16:35:24.853Z,17.50
2022-10-05T16:38:14.669Z,18.50
2022-10-05T16:41:01.883Z,27.70
2022-10-05T16:43:46.033Z,82.00
2022-10-05T16:46:27.758Z,64.40
2022-10-05T16:49:04.127Z,40.00
2022-10-05T16:51:59.808Z,31.80
2022-10-05T16:54:48.938Z,32.10
2022-10-05T16:57:45.312Z,23.60
2022-10-05T17:00:21.067Z,25.20
2022-10-05T17:03:11.318Z,27.80
2022-10-05T17:05:55.622Z,28.50
2022-10-05T17:08:45.895Z,33.80
2022-10-05T17:11:45.754Z,35.00
2022-10-05T17:14:45.485Z,26.10
2022-10-05T17:17:36.474Z,23.50
2022-10-05T17:20:35.407Z,53.20
2022-10-05T17:23:23.399Z,196.80
2022-10-05T17:26:24.045Z,88.90
2022-10-05T17:28:51.660Z,34.50
2022-10-05T17:31:22.258Z,23.00
2022-10-05T17:34:13.062Z,24.10
2022-10-05T17:36:42.858Z,22.10
2022-10-05T17:39:17.899Z,27.80
2022-10-05T17:41:46.797Z,36.90
2022-10-05T17:44:16.148Z,36.60
2022-10-05T17:46:48.455Z,19.70
2022-10-05T17:49:33.991Z,22.00
2022-10-05T17:52:23.485Z,18.50
2022-10-05T17:55:12.563Z,17.60
2022-10-05T17:57:41.872Z,20.60
2022-10-05T18:00:25.464Z,19.00
2022-10-05T18:02:58.045Z,17.70
2022-10-05T18:05:28.569Z,20.50
2022-10-05T18:08:12.777Z,18.80
2022-10-05T18:11:12.483Z,23.30
2022-10-05T18:13:46.256Z,15.30
2022-10-05T18:16:49.937Z,13.90
2022-10-05T18:19:21.762Z,13.00
2022-10-05T18:22:30.299Z,15.00
2022-10-05T18:25:29.566Z,14.10
2022-10-05T18:28:12.124Z,15.60
2022-10-05T18:30:59.151Z,14.70
2022-10-05T18:33:30.378Z,16.60
2022-10-05T18:36:36.894Z,18.20
2022-10-05T18:39:21.792Z,20.70
2022-10-05T18:42:06.941Z,21.80
2022-10-05T18:44:48.335Z,25.00
2022-10-05T18:47:34.665Z,24.80
2022-10-05T18:50:21.673Z,24.30
2022-10-05T18:53:02.028Z,20.10
2022-10-05T18:55:43.552Z,18.60
2022-10-05T18:58:36.004Z,18.70
2022-10-05T19:01:29.178Z,16.90
2022-10-05T19:04:04.891Z,16.90
2022-10-05T19:06:51.747Z,16.10
2022-10-05T19:09:41.503Z,17.40
2022-10-05T19:12:19.992Z,17.90
2022-10-05T19:14:51.031Z,20.10
2022-10-05T19:17:18.733Z,18.70
2022-10-05T19:20:18.426Z,17.30
2022-10-05T19:22:52.204Z,19.70
2022-10-05T19:27:55.541Z,18.80
2022-10-05T19:30:27.195Z,15.40
2022-10-05T19:33:34.508Z,17.10
2022-10-05T19:36:34.201Z,15.90
2022-10-05T19:39:17.275Z,16.90
2022-10-05T19:41:47.829Z,15.40
2022-10-05T19:44:45.985Z,14.20
2022-10-05T19:47:40.263Z,13.60
2022-10-05T19:50:27.631Z,16.70
2022-10-05T19:53:12.740Z,15.30
2022-10-05T19:55:43.672Z,18.90
2022-10-05T19:58:28.839Z,13.90
2022-10-05T20:01:02.295Z,17.60
2022-10-05T20:03:32.347Z,16.10
2022-10-05T20:06:02.375Z,15.30
2022-10-05T20:08:46.851Z,12.90
2022-10-05T20:11:20.412Z,16.90
2022-10-05T20:13:48.058Z,12.00
2022-10-05T20:16:31.822Z,14.40
2022-10-05T20:19:15.866Z,13.40
2022-10-05T20:22:19.426Z,15.90
2022-10-05T20:24:52.899Z,13.60
2022-10-05T20:27:42.297Z,15.20
2022-10-05T20:30:12.957Z,11.90
2022-10-05T20:32:41.471Z,12.70
2022-10-05T20:35:09.332Z,13.80
2022-10-05T20:37:37.092Z,12.40
2022-10-05T20:40:06.724Z,11.20
2022-10-05T20:42:34.781Z,10.90
2022-10-05T20:45:04.078Z,11.10
2022-10-05T20:47:32.180Z,13.50
2022-10-05T20:50:01.981Z,12.30
2022-10-05T20:52:31.574Z,12.90
2022-10-05T20:55:00.282Z,13.20
2022-10-05T20:57:27.981Z,12.00
2022-10-05T20:59:55.641Z,11.10
2022-10-05T21:02:23.657Z,11.90
2022-10-05T21:04:51.712Z,12.10
2022-10-05T21:07:21.078Z,13.50
2022-10-05T21:09:49.571Z,12.10
2022-10-05T21:12:17.338Z,11.50
2022-10-05T21:14:46.176Z,13.70
2022-10-05T21:17:14.180Z,16.10
2022-10-05T21:19:41.987Z,13.60
2022-10-05T21:22:10.342Z,10.90
2022-10-05T21:24:40.714Z,11.60
2022-10-05T21:27:10.172Z,12.10
2022-10-05T21:29:40.861Z,11.90
2022-10-05T21:32:11.252Z,10.70
2022-10-05T21:34:40.260Z,11.30
2022-10-05T21:37:08.711Z,11.30
2022-10-05T21:39:36.784Z,11.30
2022-10-05T21:42:04.664Z,12.40
2022-10-05T21:44:32.403Z,13.20
2022-10-05T21:47:00.094Z,14.10
2022-10-05T21:49:28.274Z,12.60
2022-10-05T21:51:56.991Z,13.10
2022-10-05T21:54:24.863Z,11.20
2022-10-05T21:56:56.111Z,11.60
2022-10-05T21:59:29.122Z,10.30
2022-10-05T22:01:57.407Z,12.10
2022-10-05T22:04:25.642Z,9.80
2022-10-05T22:06:55.442Z,13.70
2022-10-05T22:09:23.286Z,12.90
2022-10-05T22:11:51.404Z,12.10
2022-10-05T22:14:19.098Z,12.80
2022-10-05T22:16:47.182Z,11.90
2022-10-05T22:19:18.693Z,11.90
2022-10-05T22:21:46.834Z,11.30
2022-10-05T22:24:14.588Z,9.90
2022-10-05T22:26:45.982Z,10.40
2022-10-05T22:29:15.905Z,10.70
2022-10-05T22:31:46.247Z,11.80
2022-10-05T22:34:15.500Z,11.00
2022-10-05T22:36:43.392Z,11.80
2022-10-05T22:39:11.192Z,10.30
2022-10-05T22:41:38.849Z,13.60
2022-10-05T22:44:07.582Z,12.10
2022-10-05T22:46:35.817Z,10.60
2022-10-05T22:49:03.521Z,10.40
2022-10-05T22:51:31.227Z,11.70
2022-10-05T22:53:58.901Z,9.80
2022-10-05T22:56:26.962Z,11.40
2022-10-05T22:58:54.674Z,11.50
2022-10-05T23:01:22.667Z,12.60
2022-10-05T23:03:50.703Z,12.10
2022-10-05T23:06:20.445Z,12.80
2022-10-05T23:08:48.135Z,13.70
2022-10-05T23:11:23.667Z,11.20
2022-10-05T23:13:56.799Z,10.60
2022-10-05T23:16:26.944Z,10.90
2022-10-05T23:18:55.313Z,11.30
2022-10-05T23:21:25.193Z,10.10
2022-10-05T23:23:53.080Z,11.60
2022-10-05T23:26:23.276Z,14.10
2022-10-05T23:28:51.014Z,12.50
2022-10-05T23:31:24.396Z,13.40
2022-10-05T23:33:53.635Z,13.30
2022-10-05T23:36:32.318Z,13.10
2022-10-05T23:39:00.343Z,11.20
2022-10-05T23:41:28.795Z,13.20
2022-10-05T23:43:56.503Z,11.40
2022-10-05T23:46:24.544Z,11.50
2022-10-05T23:48:53.134Z,12.70
2022-10-05T23:51:20.827Z,12.60
2022-10-05T23:53:48.501Z,10.70
2022-10-05T23:56:16.432Z,11.80
2022-10-05T23:58:45.041Z,12.10
